Winthrop, Iowa
Current Conditions -  °F | °C
As of 1:35 PM on Saturday 25 Oct 2014 (Local Time) from KIIB Reporting Station
Haze Haze  
Wind Chill: 19°   Ceiling: Unl
Heat Index: 19°   Visibility: 5mi
Dew Point:   Wind: 13mph
Humidity: 32%   Direction: 350°N
Pressure: 30.06"   Gusts: 20mph
Location:  42.47°N, 91.73°W
Report Text: KIIB 251835Z AUTO 35011G17KT 5SM HZ CLR 19/02 A3006 RMK AO2
Loading
Personal Weather Stations






























Interactive Weather Map
Tropical Storm Tracking
New forecast layout! Learn more

10-Day Weather Forecast

Advertisements
Track Severe Weather on mobile